createdAt,value
2019-02-17T00:28:15.214Z,1021.84
2019-02-17T00:28:15.775Z,1021.85
2019-02-17T00:28:16.378Z,1021.82
2019-02-17T00:28:16.972Z,1021.84
2019-02-17T00:28:17.575Z,1021.88
2019-02-17T00:28:18.173Z,1021.85
2019-02-17T00:28:18.771Z,1021.82
2019-02-17T00:28:19.370Z,1021.82
2019-02-17T00:28:19.970Z,1021.81
2019-02-17T00:28:20.570Z,1021.83
2019-02-17T00:28:21.175Z,1021.83
2019-02-17T00:28:21.769Z,1021.83
2019-02-17T00:29:28.455Z,1021.78
2019-02-17T00:29:29.031Z,1021.78
2019-02-17T00:29:29.628Z,1021.80
2019-02-17T00:29:30.230Z,1021.85
2019-02-17T00:29:30.827Z,1021.83
2019-02-17T00:30:44.335Z,1021.86
2019-02-17T00:30:44.912Z,1021.86
2019-02-17T00:30:45.508Z,1021.85
2019-02-17T00:30:46.108Z,1021.82
2019-02-17T00:30:46.707Z,1021.82
2019-02-17T00:30:47.307Z,1021.85
2019-02-17T00:30:47.907Z,1021.87
2019-02-17T00:30:48.507Z,1021.86
2019-02-17T00:31:43.525Z,1021.84
2019-02-17T00:31:44.100Z,1021.83
2019-02-17T00:31:44.702Z,1021.83
2019-02-17T00:31:45.293Z,1021.82
2019-02-17T00:31:45.893Z,1021.84
2019-02-17T00:31:46.494Z,1021.82
2019-02-17T00:32:40.460Z,1021.83
2019-02-17T00:32:41.032Z,1021.82
2019-02-17T00:32:41.635Z,1021.84
2019-02-17T00:32:42.230Z,1021.82
2019-02-17T00:32:42.834Z,1021.79
2019-02-17T00:32:43.429Z,1021.80
2019-02-17T00:32:44.030Z,1021.87
2019-02-17T00:32:44.630Z,1021.85
2019-02-17T00:33:38.121Z,1021.84
2019-02-17T00:33:38.683Z,1021.86
2019-02-17T00:33:39.283Z,1021.80
2019-02-17T00:33:39.883Z,1021.78
2019-02-17T00:33:40.484Z,1021.80
2019-02-17T00:33:41.081Z,1021.82
2019-02-17T00:33:41.682Z,1021.79
2019-02-17T00:33:42.281Z,1021.83
2019-02-17T00:34:35.765Z,1021.82
2019-02-17T00:34:36.335Z,1021.82
2019-02-17T00:34:36.935Z,1021.83
2019-02-17T00:34:37.534Z,1021.81
2019-02-17T00:34:38.133Z,1021.81
2019-02-17T00:34:38.734Z,1021.82
2019-02-17T00:34:39.334Z,1021.83
2019-02-17T00:34:39.950Z,1021.83
2019-02-17T00:35:34.947Z,1021.85
2019-02-17T00:35:35.523Z,1021.85
2019-02-17T00:35:36.125Z,1021.85
2019-02-17T00:35:36.721Z,1021.83
2019-02-17T00:35:37.321Z,1021.82
2019-02-17T00:35:37.923Z,1021.84
2019-02-17T00:36:33.421Z,1021.82
2019-02-17T00:36:33.992Z,1021.82
2019-02-17T00:36:34.593Z,1021.77
2019-02-17T00:36:35.193Z,1021.80
2019-02-17T00:36:35.793Z,1021.84
2019-02-17T00:36:36.391Z,1021.81
2019-02-17T00:37:47.973Z,1021.81
2019-02-17T00:37:48.539Z,1021.79
2019-02-17T00:37:49.138Z,1021.83
2019-02-17T00:37:49.737Z,1021.76
2019-02-17T00:37:50.337Z,1021.80
2019-02-17T00:37:50.954Z,1021.83
2019-02-17T00:37:51.536Z,1021.81
2019-02-17T00:37:52.136Z,1021.80
2019-02-17T00:37:52.737Z,1021.81
2019-02-17T00:37:53.336Z,1021.80
2019-02-17T00:37:53.937Z,1021.80
2019-02-17T00:37:54.535Z,1021.78
2019-02-17T00:38:49.519Z,1021.81
2019-02-17T00:38:50.084Z,1021.85
2019-02-17T00:38:50.684Z,1021.84
2019-02-17T00:38:51.284Z,1021.85
2019-02-17T00:38:51.883Z,1021.83
2019-02-17T00:38:52.484Z,1021.83
2019-02-17T00:39:46.553Z,1021.79
2019-02-17T00:39:47.122Z,1021.83
2019-02-17T00:39:47.722Z,1021.85
2019-02-17T00:39:48.320Z,1021.84
2019-02-17T00:39:48.921Z,1021.85
2019-02-17T00:39:49.521Z,1021.83
2019-02-17T00:39:50.123Z,1021.82
2019-02-17T00:39:50.721Z,1021.86
2019-02-17T00:40:49.219Z,1021.83
2019-02-17T00:40:49.794Z,1021.84
2019-02-17T00:40:50.445Z,1021.81
2019-02-17T00:40:50.990Z,1021.81
2019-02-17T00:40:51.590Z,1021.84
2019-02-17T00:40:52.190Z,1021.84
2019-02-17T00:40:52.792Z,1021.84
2019-02-17T00:40:53.389Z,1021.81
2019-02-17T00:40:53.988Z,1021.80
2019-02-17T00:40:54.589Z,1021.80
2019-02-17T00:40:55.191Z,1021.80
2019-02-17T00:40:55.788Z,1021.84
2019-02-17T00:40:56.387Z,1021.83
2019-02-17T00:40:56.988Z,1021.81
2019-02-17T00:40:57.590Z,1021.83
2019-02-17T00:40:58.187Z,1021.81
2019-02-17T04:43:54.397Z,1021.11
2019-02-17T04:43:54.899Z,1021.05
2019-02-17T04:43:55.495Z,1021.06
2019-02-17T04:43:56.098Z,1021.06
2019-02-17T04:43:56.701Z,1021.10
2019-02-17T04:44:51.718Z,1021.11
2019-02-17T04:44:52.293Z,1021.09
2019-02-17T04:44:52.890Z,1021.07
2019-02-17T04:44:53.495Z,1021.09
2019-02-17T04:44:54.093Z,1021.05
2019-02-17T04:44:54.690Z,1021.10
2019-02-17T04:46:05.039Z,1021.06
2019-02-17T04:46:05.612Z,1021.08
2019-02-17T04:46:06.212Z,1021.07
2019-02-17T04:46:06.826Z,1021.11
2019-02-17T04:46:07.412Z,1021.08
2019-02-17T04:46:08.011Z,1021.09
2019-02-17T04:46:08.641Z,1021.08
2019-02-17T04:46:09.299Z,1021.07
2019-02-17T04:46:09.810Z,1021.07
2019-02-17T04:46:10.408Z,1021.09
2019-02-17T04:46:11.010Z,1021.10
2019-02-17T04:46:11.607Z,1021.09
2019-02-17T04:46:12.207Z,1021.06
2019-02-17T04:46:12.807Z,1021.08
2019-02-17T04:46:13.405Z,1021.08
2019-02-17T04:46:14.008Z,1021.11
2019-02-17T04:48:46.872Z,1021.00
2019-02-17T04:48:47.397Z,1021.02
2019-02-17T04:48:47.999Z,1021.03
2019-02-17T04:48:48.597Z,1021.01
2019-02-17T04:48:49.197Z,1021.00
2019-02-17T04:48:49.797Z,1020.99
2019-02-17T04:48:50.396Z,1020.99
2019-02-17T04:48:51.001Z,1020.97
2019-02-17T04:48:51.597Z,1021.03
2019-02-17T04:48:52.206Z,1021.00
2019-02-17T04:48:52.794Z,1021.01
2019-02-17T04:48:53.394Z,1020.99
2019-02-17T04:49:55.034Z,1020.95
2019-02-17T04:49:56.541Z,1021.00
2019-02-17T04:49:56.947Z,1020.98
2019-02-17T04:49:57.521Z,1021.02
2019-02-17T04:49:58.121Z,1020.99
2019-02-17T04:49:58.727Z,1021.00
2019-02-17T04:49:59.322Z,1020.97
2019-02-17T04:49:59.920Z,1020.99
2019-02-17T04:50:00.521Z,1021.03
2019-02-17T04:50:01.124Z,1020.98
2019-02-17T04:50:01.721Z,1020.97
2019-02-17T04:51:21.259Z,1020.94
2019-02-17T04:51:21.830Z,1020.94
2019-02-17T04:51:22.431Z,1020.95
2019-02-17T04:51:23.027Z,1020.96
2019-02-17T04:51:23.628Z,1020.96
2019-02-17T04:51:24.228Z,1020.99
2019-02-17T04:51:24.826Z,1020.97
2019-02-17T04:51:25.430Z,1020.95
2019-02-17T04:51:26.027Z,1020.95
2019-02-17T04:51:26.625Z,1020.93
2019-02-17T04:51:27.270Z,1020.89
2019-02-17T04:51:27.891Z,1020.92
2019-02-17T04:51:28.465Z,1020.94
2019-02-17T04:51:29.022Z,1020.98
2019-02-17T04:51:29.621Z,1020.97
2019-02-17T04:54:01.762Z,1020.85
2019-02-17T04:54:02.265Z,1020.90
2019-02-17T04:54:02.860Z,1020.90
2019-02-17T04:54:03.458Z,1020.92
2019-02-17T04:54:04.127Z,1020.90
2019-02-17T04:54:04.692Z,1020.90
2019-02-17T04:54:05.310Z,1020.88
2019-02-17T04:54:05.858Z,1020.86
2019-02-17T04:54:06.460Z,1020.89
2019-02-17T04:54:07.058Z,1020.91
2019-02-17T04:54:07.661Z,1020.90
2019-02-17T04:54:08.258Z,1020.91
2019-02-17T04:54:08.857Z,1020.89
2019-02-17T04:54:09.457Z,1020.89
2019-02-17T04:54:10.058Z,1020.86
2019-02-17T04:55:11.043Z,1020.87
2019-02-17T04:55:11.619Z,1020.91
2019-02-17T04:55:12.215Z,1020.84
2019-02-17T04:55:12.815Z,1020.86
2019-02-17T04:55:13.414Z,1020.88
2019-02-17T04:55:14.014Z,1020.88
2019-02-17T04:55:14.616Z,1020.89
2019-02-17T04:55:15.220Z,1020.92
2019-02-17T04:55:15.851Z,1020.90
2019-02-17T04:55:16.412Z,1020.88
2019-02-17T04:55:17.010Z,1020.89
2019-02-17T04:55:17.614Z,1020.92
2019-02-17T04:56:11.153Z,1020.86
2019-02-17T04:56:11.729Z,1020.91
2019-02-17T04:56:12.326Z,1020.89
2019-02-17T04:56:12.927Z,1020.86
2019-02-17T04:56:13.561Z,1020.87
2019-02-17T04:56:14.128Z,1020.90
2019-02-17T04:56:14.726Z,1020.89
2019-02-17T04:56:15.336Z,1020.91
2019-02-17T04:57:11.877Z,1020.86
2019-02-17T04:57:12.471Z,1020.86
2019-02-17T04:57:13.080Z,1020.84
2019-02-17T04:58:07.069Z,1020.85
2019-02-17T04:58:07.648Z,1020.85
2019-02-17T04:58:08.266Z,1020.87
2019-02-17T04:58:08.861Z,1020.85
2019-02-17T04:58:09.441Z,1020.82
2019-02-17T04:58:10.041Z,1020.84
2019-02-17T04:58:10.641Z,1020.84
2019-02-17T04:59:29.202Z,1020.82
2019-02-17T04:59:29.769Z,1020.85
2019-02-17T04:59:30.372Z,1020.83
2019-02-17T04:59:30.970Z,1020.86
2019-02-17T04:59:31.569Z,1020.86
2019-02-17T04:59:32.169Z,1020.86
2019-02-17T04:59:32.766Z,1020.83
2019-02-17T04:59:33.369Z,1020.90
2019-02-17T04:59:33.976Z,1020.83
2019-02-17T04:59:34.595Z,1020.88
2019-02-17T04:59:35.175Z,1020.84
2019-02-17T04:59:35.766Z,1020.85
2019-02-17T04:59:36.364Z,1020.83
2019-02-17T04:59:36.965Z,1020.85
2019-02-17T04:59:37.565Z,1020.88
2019-02-17T04:59:38.166Z,1020.86
2019-02-17T05:01:03.299Z,1020.78
2019-02-17T05:01:03.877Z,1020.82
2019-02-17T05:01:04.475Z,1020.84
2019-02-17T05:01:05.074Z,1020.80
2019-02-17T05:01:05.673Z,1020.80
2019-02-17T05:01:06.298Z,1020.82
2019-02-17T05:01:06.880Z,1020.81
2019-02-17T05:02:07.919Z,1020.79
2019-02-17T05:02:08.492Z,1020.78
2019-02-17T05:02:09.089Z,1020.77
2019-02-17T05:02:09.689Z,1020.81
2019-02-17T05:02:10.288Z,1020.77
2019-02-17T05:02:10.887Z,1020.83
2019-02-17T05:02:11.488Z,1020.80
2019-02-17T05:02:12.089Z,1020.81
2019-02-17T05:02:12.691Z,1020.84
2019-02-17T05:02:13.292Z,1020.83
2019-02-17T05:02:13.887Z,1020.83
2019-02-17T05:02:14.488Z,1020.80
2019-02-17T05:03:28.055Z,1020.79
2019-02-17T05:03:28.618Z,1020.80
2019-02-17T05:03:29.183Z,1020.78
2019-02-17T05:03:29.766Z,1020.83
2019-02-17T05:03:30.362Z,1020.80
2019-02-17T05:03:30.965Z,1020.78
2019-02-17T05:03:31.564Z,1020.84
2019-02-17T05:03:32.191Z,1020.80
2019-02-17T05:04:27.236Z,1020.80
2019-02-17T05:04:27.808Z,1020.82
2019-02-17T05:04:28.368Z,1020.81
2019-02-17T05:04:28.957Z,1020.77
2019-02-17T05:04:29.616Z,1020.82
2019-02-17T05:04:30.153Z,1020.81
2019-02-17T05:05:25.139Z,1020.77
2019-02-17T05:05:25.715Z,1020.78
2019-02-17T05:05:26.314Z,1020.77
2019-02-17T05:05:26.913Z,1020.75
2019-02-17T05:05:27.514Z,1020.73
2019-02-17T05:05:28.114Z,1020.75
2019-02-17T05:05:28.712Z,1020.73
2019-02-17T05:05:29.312Z,1020.74
2019-02-17T05:06:25.872Z,1020.75
2019-02-17T05:06:26.440Z,1020.74
2019-02-17T05:06:27.038Z,1020.76
2019-02-17T05:08:01.629Z,1020.72
2019-02-17T05:08:02.188Z,1020.73
2019-02-17T05:08:02.781Z,1020.76
2019-02-17T05:08:03.381Z,1020.75
2019-02-17T05:08:03.982Z,1020.71
2019-02-17T05:08:04.582Z,1020.76
2019-02-17T05:09:01.104Z,1020.69
2019-02-17T05:09:01.681Z,1020.76
2019-02-17T05:09:02.280Z,1020.78
2019-02-17T05:10:42.888Z,1020.78
2019-02-17T05:10:43.468Z,1020.78
2019-02-17T05:10:44.063Z,1020.75
2019-02-17T05:10:44.663Z,1020.76
2019-02-17T05:10:45.262Z,1020.77
2019-02-17T05:10:46.812Z,1020.75
2019-02-17T05:10:47.309Z,1020.72
2019-02-17T05:10:47.908Z,1020.72
2019-02-17T05:10:48.515Z,1020.72
2019-02-17T05:10:49.114Z,1020.77
2019-02-17T05:10:49.716Z,1020.74
2019-02-17T05:10:50.306Z,1020.76
2019-02-17T05:11:44.332Z,1020.72
2019-02-17T05:11:44.905Z,1020.74
2019-02-17T05:11:45.505Z,1020.75
2019-02-17T05:11:46.107Z,1020.79
2019-02-17T05:11:46.705Z,1020.73
2019-02-17T05:11:47.304Z,1020.75
2019-02-17T05:11:47.908Z,1020.74
2019-02-17T05:11:48.506Z,1020.74
2019-02-17T05:13:26.118Z,1020.70
2019-02-17T05:13:26.697Z,1020.74
2019-02-17T05:13:27.291Z,1020.72
2019-02-17T05:13:27.891Z,1020.72
2019-02-17T05:13:28.492Z,1020.74
2019-02-17T05:13:29.091Z,1020.73
2019-02-17T05:13:29.694Z,1020.69
2019-02-17T05:13:30.292Z,1020.73
2019-02-17T05:13:30.892Z,1020.72
2019-02-17T05:13:31.491Z,1020.74
2019-02-17T05:13:32.094Z,1020.70
2019-02-17T05:13:32.689Z,1020.70
2019-02-17T05:13:33.289Z,1020.69
2019-02-17T05:13:33.889Z,1020.69
2019-02-17T05:13:34.489Z,1020.71
2019-02-17T05:13:35.088Z,1020.76
2019-02-17T05:13:35.687Z,1020.74
2019-02-17T05:13:36.293Z,1020.71
2019-02-17T05:14:31.242Z,1020.70
2019-02-17T05:14:31.821Z,1020.67
2019-02-17T05:14:32.434Z,1020.70
2019-02-17T05:14:33.035Z,1020.69
2019-02-17T05:14:33.631Z,1020.69
2019-02-17T05:14:34.234Z,1020.70
2019-02-17T05:15:28.281Z,1020.65
2019-02-17T05:15:28.857Z,1020.67
2019-02-17T05:15:29.483Z,1020.70
2019-02-17T05:15:30.057Z,1020.71
2019-02-17T05:15:30.656Z,1020.68
2019-02-17T05:15:31.331Z,1020.71
2019-02-17T05:15:31.915Z,1020.70
2019-02-17T05:15:32.488Z,1020.73
2019-02-17T05:16:26.446Z,1020.66
2019-02-17T05:16:27.023Z,1020.68
2019-02-17T05:16:27.622Z,1020.67
2019-02-17T05:16:28.221Z,1020.67
2019-02-17T05:16:28.825Z,1020.69
2019-02-17T05:16:29.417Z,1020.74
2019-02-17T05:16:30.021Z,1020.72
2019-02-17T05:17:31.059Z,1020.67
2019-02-17T05:17:31.634Z,1020.69
2019-02-17T05:17:32.233Z,1020.67
2019-02-17T05:17:32.834Z,1020.68
2019-02-17T05:17:33.449Z,1020.69
2019-02-17T05:17:34.032Z,1020.73
2019-02-17T05:17:34.636Z,1020.68
2019-02-17T05:17:35.232Z,1020.66
2019-02-17T05:17:35.831Z,1020.70
2019-02-17T05:17:36.432Z,1020.73
2019-02-17T05:17:37.033Z,1020.71
2019-02-17T05:17:37.632Z,1020.70
2019-02-17T05:19:06.701Z,1020.70
2019-02-17T05:19:07.277Z,1020.71
2019-02-17T05:19:07.885Z,1020.72
2019-02-17T05:19:08.487Z,1020.76
2019-02-17T05:19:09.074Z,1020.75
2019-02-17T05:19:09.675Z,1020.73
2019-02-17T05:19:10.289Z,1020.72
2019-02-17T05:19:10.957Z,1020.70
2019-02-17T05:19:12.161Z,1020.73
2019-02-17T05:19:12.658Z,1020.72
2019-02-17T05:19:13.256Z,1020.69
2019-02-17T05:19:13.857Z,1020.73
2019-02-17T05:19:14.460Z,1020.73
2019-02-17T05:19:15.061Z,1020.69
2019-02-17T05:19:15.657Z,1020.73
2019-02-17T05:20:12.137Z,1020.69
2019-02-17T05:20:12.724Z,1020.70
2019-02-17T05:20:13.311Z,1020.72
2019-02-17T05:20:13.910Z,1020.72
2019-02-17T05:20:14.512Z,1020.74
2019-02-17T05:20:15.112Z,1020.72
2019-02-17T05:21:15.124Z,1020.75
2019-02-17T05:21:15.687Z,1020.71
2019-02-17T05:21:16.287Z,1020.71
2019-02-17T05:21:16.888Z,1020.74
2019-02-17T05:21:17.487Z,1020.76
2019-02-17T05:21:18.092Z,1020.73
2019-02-17T05:21:18.686Z,1020.70
2019-02-17T05:21:19.430Z,1020.73
2019-02-17T05:21:19.885Z,1020.75
2019-02-17T05:21:20.483Z,1020.75
2019-02-17T05:21:21.088Z,1020.74
2019-02-17T05:21:21.684Z,1020.73
2019-02-17T05:21:22.285Z,1020.75
2019-02-17T05:21:22.884Z,1020.77
2019-02-17T05:21:23.483Z,1020.74
2019-02-17T05:21:24.087Z,1020.72
2019-02-17T09:18:51.416Z,1020.95
2019-02-17T09:18:51.984Z,1020.91
2019-02-17T09:18:52.586Z,1020.88
2019-02-17T09:18:53.183Z,1020.91
2019-02-17T09:18:53.782Z,1020.92
2019-02-17T09:18:54.385Z,1020.95
2019-02-17T09:18:54.982Z,1020.89
2019-02-17T09:18:55.585Z,1020.92
2019-02-17T09:18:56.258Z,1020.96
2019-02-17T09:18:56.811Z,1020.93
2019-02-17T09:18:57.384Z,1020.96
2019-02-17T09:18:57.983Z,1020.89
2019-02-17T09:20:33.167Z,1020.94
2019-02-17T09:20:33.730Z,1020.92
2019-02-17T09:20:34.331Z,1020.90
2019-02-17T09:20:34.938Z,1020.93
2019-02-17T09:20:35.530Z,1020.89
2019-02-17T09:20:36.130Z,1020.91
2019-02-17T09:21:37.158Z,1020.89
2019-02-17T09:21:37.731Z,1020.90
2019-02-17T09:21:38.334Z,1020.88
2019-02-17T09:21:38.932Z,1020.88
2019-02-17T09:21:39.537Z,1020.92
2019-02-17T09:21:40.210Z,1020.95
2019-02-17T09:21:40.766Z,1020.93
2019-02-17T09:21:41.330Z,1020.92
2019-02-17T09:21:41.927Z,1020.92
2019-02-17T09:21:42.527Z,1020.93
2019-02-17T09:21:43.129Z,1020.94
2019-02-17T09:21:43.725Z,1020.90
2019-02-17T09:26:14.111Z,1020.93
2019-02-17T09:28:23.038Z,1020.96
2019-02-17T09:28:23.593Z,1020.99
2019-02-17T09:28:24.138Z,1020.97
2019-02-17T09:28:24.738Z,1020.98
2019-02-17T09:28:25.335Z,1020.96
2019-02-17T09:28:25.934Z,1020.97
2019-02-17T09:28:26.534Z,1020.98
2019-02-17T09:28:27.135Z,1020.96
2019-02-17T09:28:27.733Z,1020.97
2019-02-17T09:28:28.335Z,1020.98
2019-02-17T09:28:28.934Z,1020.98
2019-02-17T09:28:29.534Z,1020.98
2019-02-17T09:28:30.133Z,1020.96
2019-02-17T09:28:30.737Z,1020.95
2019-02-17T09:28:31.335Z,1020.96
2019-02-17T09:28:31.953Z,1020.93
2019-02-17T09:32:35.846Z,1020.93
2019-02-17T09:32:36.346Z,1020.95
2019-02-17T09:32:36.946Z,1020.98
2019-02-17T09:32:37.545Z,1020.96
2019-02-17T09:32:38.146Z,1020.98
2019-02-17T09:32:38.757Z,1020.97
2019-02-17T09:32:39.344Z,1020.99
2019-02-17T09:32:39.945Z,1020.99
2019-02-17T09:32:40.543Z,1020.97
2019-02-17T09:32:41.143Z,1021.00
2019-02-17T09:38:43.570Z,1020.99
2019-02-17T09:38:44.144Z,1020.96
2019-02-17T09:38:44.742Z,1020.98
2019-02-17T09:38:45.339Z,1020.98
2019-02-17T09:38:45.940Z,1021.00
2019-02-17T09:38:46.575Z,1020.94
2019-02-17T09:38:47.253Z,1020.95
2019-02-17T09:38:47.755Z,1020.96
2019-02-17T09:38:48.336Z,1020.97
2019-02-17T09:38:48.935Z,1020.99
2019-02-17T09:38:49.536Z,1021.00
2019-02-17T09:38:50.139Z,1020.98
2019-02-17T09:48:41.647Z,1020.89
2019-02-17T09:48:42.219Z,1020.87
2019-02-17T09:48:42.820Z,1020.84
2019-02-17T09:48:43.418Z,1020.86
2019-02-17T09:48:44.020Z,1020.83
2019-02-17T09:48:44.618Z,1020.87
2019-02-17T09:48:45.220Z,1020.85
2019-02-17T09:48:45.822Z,1020.83
2019-02-17T09:48:46.418Z,1020.87
2019-02-17T09:48:47.017Z,1020.87
2019-02-17T09:48:47.618Z,1020.86
2019-02-17T09:48:48.220Z,1020.88
2019-02-17T09:48:48.821Z,1020.87
2019-02-17T09:48:49.596Z,1020.85
2019-02-17T09:48:50.016Z,1020.87
2019-02-17T09:48:50.615Z,1020.87
2019-02-17T09:48:51.217Z,1020.89
2019-02-17T10:21:54.972Z,1020.92
2019-02-17T10:21:55.470Z,1020.93
2019-02-17T10:21:56.070Z,1020.91
2019-02-17T10:21:56.671Z,1020.92
2019-02-17T10:21:57.274Z,1020.95
2019-02-17T10:21:57.873Z,1020.93
2019-02-17T10:21:58.476Z,1020.93
2019-02-17T10:21:59.192Z,1020.95
2019-02-17T10:21:59.756Z,1020.96
2019-02-17T10:22:00.269Z,1020.92
2019-02-17T10:22:00.866Z,1020.95
2019-02-17T10:22:01.468Z,1020.93
2019-02-17T10:22:02.072Z,1020.91
2019-02-17T10:22:02.666Z,1020.93
2019-02-17T10:22:03.266Z,1020.95
2019-02-17T10:22:57.960Z,1020.94
2019-02-17T10:22:58.532Z,1020.92
2019-02-17T10:22:59.147Z,1020.95
2019-02-17T10:22:59.732Z,1020.95
2019-02-17T10:23:00.355Z,1020.96
2019-02-17T10:23:01.049Z,1020.90
2019-02-17T10:23:01.530Z,1020.93
2019-02-17T10:24:43.101Z,1020.95
2019-02-17T10:24:43.585Z,1020.94
2019-02-17T10:24:44.189Z,1020.92
2019-02-17T10:24:44.777Z,1020.95
2019-02-17T10:24:45.363Z,1020.96
2019-02-17T10:24:45.962Z,1020.94
2019-02-17T10:24:46.563Z,1020.95
2019-02-17T10:24:47.165Z,1020.92
2019-02-17T10:24:47.980Z,1020.94
2019-02-17T10:24:48.362Z,1020.93
2019-02-17T10:24:48.962Z,1020.94
2019-02-17T10:24:49.563Z,1020.90
2019-02-17T10:25:46.625Z,1020.95
2019-02-17T10:25:47.186Z,1020.96
2019-02-17T10:25:47.991Z,1020.99
2019-02-17T11:35:12.607Z,1020.38
2019-02-17T11:35:13.167Z,1020.33
2019-02-17T11:35:13.764Z,1020.38
2019-02-17T11:35:14.365Z,1020.38
2019-02-17T11:35:14.964Z,1020.39
2019-02-17T11:35:15.567Z,1020.38
2019-02-17T11:35:16.168Z,1020.39
2019-02-17T11:35:16.764Z,1020.39
2019-02-17T11:35:17.365Z,1020.39
2019-02-17T11:35:17.966Z,1020.38
2019-02-17T11:35:18.571Z,1020.41
2019-02-17T11:35:19.165Z,1020.41
2019-02-17T11:36:36.377Z,1020.38
2019-02-17T11:36:36.951Z,1020.38
2019-02-17T11:38:59.251Z,1020.30
2019-02-17T11:38:59.824Z,1020.33
2019-02-17T11:39:00.422Z,1020.34
2019-02-17T11:39:01.023Z,1020.35
2019-02-17T11:39:02.274Z,1020.34
2019-02-17T11:39:02.419Z,1020.35
2019-02-17T11:39:02.821Z,1020.34
2019-02-17T11:39:03.420Z,1020.33
2019-02-17T11:39:04.021Z,1020.34
2019-02-17T11:39:04.619Z,1020.37
2019-02-17T11:39:05.222Z,1020.37
2019-02-17T11:39:05.821Z,1020.30
2019-02-17T11:40:08.427Z,1020.31
2019-02-17T11:40:09.001Z,1020.33
2019-02-17T11:40:09.599Z,1020.33
2019-02-17T11:40:10.206Z,1020.34
2019-02-17T11:40:10.801Z,1020.34
2019-02-17T11:40:11.402Z,1020.35
2019-02-17T11:40:11.999Z,1020.34
2019-02-17T11:40:12.599Z,1020.31
2019-02-17T11:40:13.200Z,1020.34
2019-02-17T11:40:13.800Z,1020.33
2019-02-17T11:40:14.398Z,1020.35
2019-02-17T11:40:15.002Z,1020.34
2019-02-17T11:41:08.536Z,1020.36
2019-02-17T11:41:09.114Z,1020.30
2019-02-17T11:41:09.708Z,1020.34
2019-02-17T11:41:12.536Z,1020.31
2019-02-17T11:41:12.544Z,1020.33
2019-02-17T11:41:12.642Z,1020.35
2019-02-17T11:41:12.747Z,1020.35
2019-02-17T11:41:12.794Z,1020.35
2019-02-17T11:42:06.189Z,1020.30
2019-02-17T11:42:06.764Z,1020.32
2019-02-17T11:42:07.361Z,1020.33
2019-02-17T11:42:07.965Z,1020.34
2019-02-17T11:42:08.561Z,1020.33
2019-02-17T11:42:09.162Z,1020.34
2019-02-17T11:42:09.762Z,1020.34
2019-02-17T11:42:10.367Z,1020.35
2019-02-17T12:36:30.680Z,1019.68
2019-02-17T12:36:31.247Z,1019.66
2019-02-17T12:36:31.850Z,1019.68
2019-02-17T12:36:32.448Z,1019.69
2019-02-17T12:36:33.075Z,1019.72
2019-02-17T12:36:33.647Z,1019.70
2019-02-17T12:36:34.249Z,1019.68
2019-02-17T12:36:34.847Z,1019.68
2019-02-17T12:36:35.446Z,1019.70
2019-02-17T12:36:36.047Z,1019.68
2019-02-17T12:36:36.646Z,1019.66
2019-02-17T12:36:37.246Z,1019.69
2019-02-17T12:38:06.884Z,1019.62
2019-02-17T12:38:07.458Z,1019.60
2019-02-17T12:38:08.057Z,1019.61
2019-02-17T12:38:08.657Z,1019.64
2019-02-17T12:38:09.255Z,1019.65
2019-02-17T12:38:09.859Z,1019.65
2019-02-17T12:38:10.458Z,1019.64
2019-02-17T12:38:11.055Z,1019.66
2019-02-17T12:38:11.656Z,1019.65
2019-02-17T12:38:12.255Z,1019.63
2019-02-17T12:38:12.854Z,1019.65
2019-02-17T12:38:13.459Z,1019.65
2019-02-17T12:38:14.063Z,1019.64
2019-02-17T12:38:14.656Z,1019.63
2019-02-17T12:38:15.271Z,1019.64
2019-02-17T12:38:15.851Z,1019.62
2019-02-17T12:39:15.065Z,1019.58
2019-02-17T12:39:15.104Z,1019.60
2019-02-17T12:39:15.187Z,1019.61
2019-02-17T12:46:36.243Z,1019.53
2019-02-17T12:46:36.753Z,1019.52
2019-02-17T12:46:37.343Z,1019.52
2019-02-17T12:46:37.947Z,1019.52
2019-02-17T12:46:38.545Z,1019.52
2019-02-17T12:46:39.143Z,1019.47
2019-02-17T12:46:39.742Z,1019.51
2019-02-17T12:46:40.341Z,1019.52
2019-02-17T12:46:40.941Z,1019.53
2019-02-17T12:48:49.274Z,1019.52
2019-02-17T14:27:18.447Z,1018.70
2019-02-17T14:27:19.019Z,1018.72
2019-02-17T14:27:19.620Z,1018.76
2019-02-17T14:27:20.216Z,1018.73
2019-02-17T14:27:20.818Z,1018.73
2019-02-17T14:27:21.415Z,1018.74
2019-02-17T14:27:22.015Z,1018.75
2019-02-17T14:27:22.684Z,1018.74
2019-02-17T14:27:23.215Z,1018.73
2019-02-17T14:27:23.820Z,1018.71
2019-02-17T14:27:24.415Z,1018.72
2019-02-17T14:27:25.016Z,1018.74
2019-02-17T14:29:48.000Z,1018.73
2019-02-17T14:29:48.466Z,1018.72
2019-02-17T14:29:49.064Z,1018.72
2019-02-17T14:29:49.665Z,1018.72
2019-02-17T14:29:50.268Z,1018.73
2019-02-17T14:29:50.865Z,1018.74
2019-02-17T14:29:51.464Z,1018.73
2019-02-17T14:29:52.065Z,1018.73
2019-02-17T14:29:52.664Z,1018.75
2019-02-17T14:29:53.268Z,1018.73
2019-02-17T14:29:53.865Z,1018.72
2019-02-17T14:29:54.487Z,1018.73
2019-02-17T14:30:53.533Z,1018.75
2019-02-17T14:30:54.109Z,1018.75
2019-02-17T14:30:54.708Z,1018.80
2019-02-17T14:30:55.310Z,1018.78
2019-02-17T14:30:55.909Z,1018.75
2019-02-17T14:30:56.513Z,1018.77
2019-02-17T14:30:57.107Z,1018.79
2019-02-17T14:30:57.725Z,1018.77
2019-02-17T14:30:58.307Z,1018.77
2019-02-17T14:30:58.909Z,1018.76
2019-02-17T14:30:59.508Z,1018.78
2019-02-17T14:31:00.106Z,1018.78
2019-02-17T14:31:00.710Z,1018.78
2019-02-17T14:31:01.306Z,1018.75
2019-02-17T14:31:01.906Z,1018.77
2019-02-17T14:31:02.505Z,1018.76
2019-02-17T15:30:12.014Z,1018.35
2019-02-17T15:30:12.580Z,1018.43
2019-02-17T15:30:13.168Z,1018.38
2019-02-17T15:30:13.767Z,1018.38
2019-02-17T15:30:14.408Z,1018.34
2019-02-17T15:30:14.970Z,1018.31
2019-02-17T15:30:17.740Z,1018.36
2019-02-17T15:30:17.937Z,1018.37
2019-02-17T15:30:17.947Z,1018.36
2019-02-17T15:30:18.084Z,1018.34
2019-02-17T15:30:18.261Z,1018.37
2019-02-17T15:30:18.568Z,1018.37
2019-02-17T15:31:14.128Z,1018.37
2019-02-17T15:31:14.697Z,1018.38
2019-02-17T15:31:15.298Z,1018.37
2019-02-17T15:31:15.896Z,1018.37
2019-02-17T15:31:16.495Z,1018.37
2019-02-17T15:31:17.098Z,1018.36
2019-02-17T15:32:16.075Z,1018.34
2019-02-17T15:32:16.709Z,1018.32
2019-02-17T15:32:17.251Z,1018.35
2019-02-17T15:32:17.852Z,1018.36
2019-02-17T15:32:18.449Z,1018.36
2019-02-17T15:32:19.050Z,1018.33
2019-02-17T15:32:19.648Z,1018.33
2019-02-17T15:32:20.250Z,1018.30
2019-02-17T15:32:20.850Z,1018.33
2019-02-17T15:32:21.452Z,1018.36
2019-02-17T15:32:22.047Z,1018.36
2019-02-17T15:32:22.649Z,1018.35
2019-02-17T15:32:23.274Z,1018.34
2019-02-17T15:32:23.881Z,1018.33
2019-02-17T15:32:24.446Z,1018.34
2019-02-17T15:32:25.045Z,1018.33
2019-02-17T15:32:25.648Z,1018.35
2019-02-17T15:33:27.158Z,1018.33
2019-02-17T15:33:27.713Z,1018.35
2019-02-17T15:33:28.314Z,1018.29
2019-02-17T15:33:28.913Z,1018.35
2019-02-17T15:33:29.514Z,1018.34
2019-02-17T15:33:30.112Z,1018.34
2019-02-17T15:33:30.718Z,1018.32
2019-02-17T15:33:31.316Z,1018.36
2019-02-17T15:33:31.914Z,1018.30
2019-02-17T15:33:32.512Z,1018.31
2019-02-17T15:33:33.113Z,1018.33
2019-02-17T15:33:33.715Z,1018.36
2019-02-17T15:34:27.251Z,1018.32
2019-02-17T15:34:27.825Z,1018.29
2019-02-17T15:34:28.426Z,1018.33
2019-02-17T15:34:29.026Z,1018.32
2019-02-17T15:34:29.625Z,1018.29
2019-02-17T15:34:30.226Z,1018.35
2019-02-17T15:34:30.824Z,1018.32
2019-02-17T15:34:31.433Z,1018.29
2019-02-17T15:35:25.934Z,1018.30
2019-02-17T15:35:26.504Z,1018.32
2019-02-17T15:35:27.103Z,1018.31
2019-02-17T15:35:27.700Z,1018.30
2019-02-17T15:35:28.300Z,1018.33
2019-02-17T15:35:28.903Z,1018.33
2019-02-17T15:35:29.501Z,1018.35
2019-02-17T15:35:30.100Z,1018.35
2019-02-17T15:36:34.127Z,1018.30
2019-02-17T15:36:34.699Z,1018.29
2019-02-17T15:36:35.300Z,1018.25
2019-02-17T15:36:35.906Z,1018.31
2019-02-17T15:36:36.499Z,1018.32
2019-02-17T15:36:37.104Z,1018.31
2019-02-17T15:36:37.699Z,1018.32
2019-02-17T15:37:33.722Z,1018.30
2019-02-17T15:37:34.297Z,1018.25